sensor_id;sensor_type;location;lat;lon;timestamp;pressure;altitude;pressure_sealevel;temperature;humidity
17060;BME280;8646;49.716;9.266;2022-07-18T00:01:58;101073.72;;;17.75;44.50
17060;BME280;8646;49.716;9.266;2022-07-18T00:05:02;101085.63;;;17.74;44.50
17060;BME280;8646;49.716;9.266;2022-07-18T00:08:06;101075.41;;;17.62;44.91
17060;BME280;8646;49.716;9.266;2022-07-18T00:11:10;101086.34;;;17.62;44.96
17060;BME280;8646;49.716;9.266;2022-07-18T00:14:12;101086.59;;;17.58;44.98
17060;BME280;8646;49.716;9.266;2022-07-18T00:17:15;101083.34;;;17.51;45.30
17060;BME280;8646;49.716;9.266;2022-07-18T00:20:18;101090.84;;;17.47;45.55
17060;BME280;8646;49.716;9.266;2022-07-18T00:23:22;101089.38;;;17.42;45.41
17060;BME280;8646;49.716;9.266;2022-07-18T00:26:25;101094.22;;;17.37;45.55
17060;BME280;8646;49.716;9.266;2022-07-18T00:29:28;101090.06;;;17.30;46.04
17060;BME280;8646;49.716;9.266;2022-07-18T00:32:31;101090.44;;;17.24;46.32
17060;BME280;8646;49.716;9.266;2022-07-18T00:35:34;101093.53;;;17.17;46.32
17060;BME280;8646;49.716;9.266;2022-07-18T00:38:39;101096.44;;;17.14;46.34
17060;BME280;8646;49.716;9.266;2022-07-18T00:41:45;101099.34;;;17.11;46.49
17060;BME280;8646;49.716;9.266;2022-07-18T00:44:52;101100.34;;;17.10;46.52
17060;BME280;8646;49.716;9.266;2022-07-18T00:47:56;101102.28;;;17.08;46.86
17060;BME280;8646;49.716;9.266;2022-07-18T00:50:59;101093.44;;;17.03;46.69
17060;BME280;8646;49.716;9.266;2022-07-18T00:54:04;101093.78;;;16.97;47.07
17060;BME280;8646;49.716;9.266;2022-07-18T00:57:07;101097.84;;;16.90;47.09
17060;BME280;8646;49.716;9.266;2022-07-18T01:00:12;101092.72;;;16.84;47.10
17060;BME280;8646;49.716;9.266;2022-07-18T01:03:33;101097.56;;;16.79;46.99
17060;BME280;8646;49.716;9.266;2022-07-18T01:06:36;101107.72;;;16.77;46.98
17060;BME280;8646;49.716;9.266;2022-07-18T01:09:41;101097.03;;;16.72;47.34
17060;BME280;8646;49.716;9.266;2022-07-18T01:12:43;101099.94;;;16.69;47.37
17060;BME280;8646;49.716;9.266;2022-07-18T01:15:47;101102.91;;;16.65;47.37
17060;BME280;8646;49.716;9.266;2022-07-18T01:18:50;101098.72;;;16.58;47.66
17060;BME280;8646;49.716;9.266;2022-07-18T01:21:55;101109.03;;;16.53;47.62
17060;BME280;8646;49.716;9.266;2022-07-18T01:24:58;101103.81;;;16.48;47.89
17060;BME280;8646;49.716;9.266;2022-07-18T01:28:02;101096.69;;;16.46;48.27
17060;BME280;8646;49.716;9.266;2022-07-18T01:31:06;101102.31;;;16.42;48.24
17060;BME280;8646;49.716;9.266;2022-07-18T01:34:08;101108.13;;;16.36;48.11
17060;BME280;8646;49.716;9.266;2022-07-18T01:37:13;101102.00;;;16.31;48.56
17060;BME280;8646;49.716;9.266;2022-07-18T01:40:16;101109.41;;;16.29;48.36
17060;BME280;8646;49.716;9.266;2022-07-18T01:43:19;101110.53;;;16.25;48.80
17060;BME280;8646;49.716;9.266;2022-07-18T01:46:22;101108.06;;;16.21;48.81
17060;BME280;8646;49.716;9.266;2022-07-18T01:49:26;101117.38;;;16.17;49.09
17060;BME280;8646;49.716;9.266;2022-07-18T01:52:32;101118.66;;;16.10;48.93
17060;BME280;8646;49.716;9.266;2022-07-18T01:55:35;101117.91;;;16.06;49.17
17060;BME280;8646;49.716;9.266;2022-07-18T01:58:38;101118.25;;;16.00;49.19
17060;BME280;8646;49.716;9.266;2022-07-18T02:01:41;101121.31;;;15.94;49.38
17060;BME280;8646;49.716;9.266;2022-07-18T02:04:44;101116.75;;;15.94;49.37
17060;BME280;8646;49.716;9.266;2022-07-18T02:08:03;101124.25;;;15.89;49.28
17060;BME280;8646;49.716;9.266;2022-07-18T02:11:07;101118.09;;;15.86;49.56
17060;BME280;8646;49.716;9.266;2022-07-18T02:14:10;101121.03;;;15.81;49.56
17060;BME280;8646;49.716;9.266;2022-07-18T02:17:13;101116.81;;;15.76;49.62
17060;BME280;8646;49.716;9.266;2022-07-18T02:20:17;101122.44;;;15.73;49.79
17060;BME280;8646;49.716;9.266;2022-07-18T02:23:21;101123.53;;;15.69;50.08
17060;BME280;8646;49.716;9.266;2022-07-18T02:26:24;101121.06;;;15.64;50.32
17060;BME280;8646;49.716;9.266;2022-07-18T02:29:27;101116.63;;;15.61;50.01
17060;BME280;8646;49.716;9.266;2022-07-18T02:32:30;101115.81;;;15.59;50.56
17060;BME280;8646;49.716;9.266;2022-07-18T02:35:32;101112.28;;;15.57;50.28
17060;BME280;8646;49.716;9.266;2022-07-18T02:38:37;101115.22;;;15.53;50.66
17060;BME280;8646;49.716;9.266;2022-07-18T02:41:40;101109.91;;;15.50;50.45
17060;BME280;8646;49.716;9.266;2022-07-18T02:44:43;101105.50;;;15.47;50.59
17060;BME280;8646;49.716;9.266;2022-07-18T02:47:47;101109.34;;;15.43;51.01
17060;BME280;8646;49.716;9.266;2022-07-18T02:50:50;101106.84;;;15.39;50.94
17060;BME280;8646;49.716;9.266;2022-07-18T02:53:54;101102.50;;;15.35;50.98
17060;BME280;8646;49.716;9.266;2022-07-18T02:56:57;101105.41;;;15.32;51.23
17060;BME280;8646;49.716;9.266;2022-07-18T03:00:00;101102.88;;;15.27;51.54
17060;BME280;8646;49.716;9.266;2022-07-18T03:03:03;101104.00;;;15.23;51.56
17060;BME280;8646;49.716;9.266;2022-07-18T03:06:05;101110.56;;;15.19;51.41
17060;BME280;8646;49.716;9.266;2022-07-18T03:09:10;101098.06;;;15.15;51.58
17060;BME280;8646;49.716;9.266;2022-07-18T03:12:14;101087.75;;;15.03;51.92
17060;BME280;8646;49.716;9.266;2022-07-18T03:15:17;101103.88;;;15.07;51.97
17060;BME280;8646;49.716;9.266;2022-07-18T03:18:20;101108.59;;;15.04;52.17
17060;BME280;8646;49.716;9.266;2022-07-18T03:21:24;101099.66;;;15.00;52.31
17060;BME280;8646;49.716;9.266;2022-07-18T03:24:28;101106.31;;;14.95;52.18
17060;BME280;8646;49.716;9.266;2022-07-18T03:27:31;101107.44;;;14.91;52.36
17060;BME280;8646;49.716;9.266;2022-07-18T03:30:34;101101.16;;;14.88;52.58
17060;BME280;8646;49.716;9.266;2022-07-18T03:33:37;101098.56;;;14.85;52.73
17060;BME280;8646;49.716;9.266;2022-07-18T03:36:40;101098.63;;;14.84;52.81
17060;BME280;8646;49.716;9.266;2022-07-18T03:39:44;101104.19;;;14.82;52.79
17060;BME280;8646;49.716;9.266;2022-07-18T03:42:48;101106.03;;;14.82;52.90
17060;BME280;8646;49.716;9.266;2022-07-18T03:45:51;101107.88;;;14.81;52.87
17060;BME280;8646;49.716;9.266;2022-07-18T03:48:54;101112.44;;;14.81;53.18
17060;BME280;8646;49.716;9.266;2022-07-18T03:51:57;101111.41;;;14.83;53.07
17060;BME280;8646;49.716;9.266;2022-07-18T03:55:02;101117.81;;;14.82;52.92
17060;BME280;8646;49.716;9.266;2022-07-18T03:58:04;101126.78;;;14.84;53.25
17060;BME280;8646;49.716;9.266;2022-07-18T04:01:07;101123.16;;;14.84;53.19
17060;BME280;8646;49.716;9.266;2022-07-18T04:04:10;101123.97;;;14.86;53.37
17060;BME280;8646;49.716;9.266;2022-07-18T04:07:14;101121.25;;;14.86;53.35
17060;BME280;8646;49.716;9.266;2022-07-18T04:10:18;101120.38;;;14.85;53.28
17060;BME280;8646;49.716;9.266;2022-07-18T04:13:21;101122.06;;;14.88;53.29
17060;BME280;8646;49.716;9.266;2022-07-18T04:16:24;101120.09;;;14.92;53.26
17060;BME280;8646;49.716;9.266;2022-07-18T04:19:27;101120.88;;;14.94;53.04
17060;BME280;8646;49.716;9.266;2022-07-18T04:22:30;101113.66;;;14.93;53.04
17060;BME280;8646;49.716;9.266;2022-07-18T04:25:36;101121.78;;;14.94;53.04
17060;BME280;8646;49.716;9.266;2022-07-18T04:28:39;101119.88;;;14.96;53.04
17060;BME280;8646;49.716;9.266;2022-07-18T04:31:42;101125.25;;;14.98;53.08
17060;BME280;8646;49.716;9.266;2022-07-18T04:34:45;101120.63;;;15.00;53.27
17060;BME280;8646;49.716;9.266;2022-07-18T04:37:49;101129.59;;;15.02;53.18
17060;BME280;8646;49.716;9.266;2022-07-18T04:40:53;101128.41;;;15.07;53.02
17060;BME280;8646;49.716;9.266;2022-07-18T04:43:56;101113.59;;;15.13;53.18
17060;BME280;8646;49.716;9.266;2022-07-18T04:46:58;101107.03;;;15.17;53.11
17060;BME280;8646;49.716;9.266;2022-07-18T04:50:02;101120.19;;;15.26;53.03
17060;BME280;8646;49.716;9.266;2022-07-18T04:53:05;101112.53;;;15.34;53.09
17060;BME280;8646;49.716;9.266;2022-07-18T04:56:10;101109.28;;;15.45;52.87
17060;BME280;8646;49.716;9.266;2022-07-18T04:59:12;101111.31;;;15.58;52.55
17060;BME280;8646;49.716;9.266;2022-07-18T05:02:16;101113.38;;;15.72;52.30
17060;BME280;8646;49.716;9.266;2022-07-18T05:05:19;101108.06;;;16.21;51.54
17060;BME280;8646;49.716;9.266;2022-07-18T05:08:22;101090.84;;;17.63;48.58
17060;BME280;8646;49.716;9.266;2022-07-18T05:11:27;101081.34;;;18.99;45.91
17060;BME280;8646;49.716;9.266;2022-07-18T05:14:31;101076.38;;;20.12;43.66
17060;BME280;8646;49.716;9.266;2022-07-18T05:17:40;101069.81;;;20.90;42.38
17060;BME280;8646;49.716;9.266;2022-07-18T05:20:43;101052.97;;;21.31;41.67
17060;BME280;8646;49.716;9.266;2022-07-18T05:23:46;101072.56;;;21.75;40.98
17060;BME280;8646;49.716;9.266;2022-07-18T05:26:51;101068.47;;;22.04;40.39
17060;BME280;8646;49.716;9.266;2022-07-18T05:29:53;101063.56;;;22.54;39.43
17060;BME280;8646;49.716;9.266;2022-07-18T05:32:56;101061.69;;;22.99;38.41
17060;BME280;8646;49.716;9.266;2022-07-18T05:35:59;101059.09;;;23.40;37.96
17060;BME280;8646;49.716;9.266;2022-07-18T05:39:02;101049.66;;;23.86;36.89
17060;BME280;8646;49.716;9.266;2022-07-18T05:42:06;101043.56;;;24.24;36.27
17060;BME280;8646;49.716;9.266;2022-07-18T05:45:10;101041.72;;;24.34;35.46
17060;BME280;8646;49.716;9.266;2022-07-18T05:48:13;101041.03;;;24.62;35.43
17060;BME280;8646;49.716;9.266;2022-07-18T05:51:16;101040.50;;;24.78;35.50
17060;BME280;8646;49.716;9.266;2022-07-18T05:54:20;101038.88;;;24.45;36.18
17060;BME280;8646;49.716;9.266;2022-07-18T05:57:24;101023.72;;;23.98;37.04
17060;BME280;8646;49.716;9.266;2022-07-18T06:00:27;101041.94;;;23.69;37.51
17060;BME280;8646;49.716;9.266;2022-07-18T06:03:30;101043.69;;;23.70;37.33
17060;BME280;8646;49.716;9.266;2022-07-18T06:06:33;101030.59;;;24.04;36.93
17060;BME280;8646;49.716;9.266;2022-07-18T06:09:35;101030.53;;;24.15;36.53
17060;BME280;8646;49.716;9.266;2022-07-18T06:12:40;101024.66;;;24.29;36.22
17060;BME280;8646;49.716;9.266;2022-07-18T06:15:43;101025.06;;;24.24;36.15
17060;BME280;8646;49.716;9.266;2022-07-18T06:18:46;101031.34;;;24.06;35.75
17060;BME280;8646;49.716;9.266;2022-07-18T06:21:49;101023.59;;;23.68;36.15
17060;BME280;8646;49.716;9.266;2022-07-18T06:24:52;101020.81;;;23.36;36.48
17060;BME280;8646;49.716;9.266;2022-07-18T06:27:56;101025.63;;;23.23;36.91
17060;BME280;8646;49.716;9.266;2022-07-18T06:30:59;101018.34;;;23.21;37.01
17060;BME280;8646;49.716;9.266;2022-07-18T06:34:03;101019.41;;;23.09;37.17
17060;BME280;8646;49.716;9.266;2022-07-18T06:37:05;101026.03;;;23.07;36.96
17060;BME280;8646;49.716;9.266;2022-07-18T06:40:09;101009.97;;;23.44;36.50
17060;BME280;8646;49.716;9.266;2022-07-18T06:43:13;101018.03;;;23.79;36.12
17060;BME280;8646;49.716;9.266;2022-07-18T06:46:20;101019.25;;;23.86;35.75
17060;BME280;8646;49.716;9.266;2022-07-18T06:49:23;101008.09;;;24.18;35.15
17060;BME280;8646;49.716;9.266;2022-07-18T06:52:27;101011.47;;;24.42;35.17
17060;BME280;8646;49.716;9.266;2022-07-18T06:55:29;101018.22;;;24.49;34.59
17060;BME280;8646;49.716;9.266;2022-07-18T06:58:34;101001.66;;;24.59;34.50
17060;BME280;8646;49.716;9.266;2022-07-18T07:01:37;101010.72;;;24.61;33.88
17060;BME280;8646;49.716;9.266;2022-07-18T07:04:40;101005.22;;;24.70;33.50
17060;BME280;8646;49.716;9.266;2022-07-18T07:07:43;100997.78;;;25.01;33.09
17060;BME280;8646;49.716;9.266;2022-07-18T07:10:49;101001.44;;;25.12;32.41
17060;BME280;8646;49.716;9.266;2022-07-18T07:13:53;100999.97;;;25.07;32.64
17060;BME280;8646;49.716;9.266;2022-07-18T07:16:56;101002.47;;;25.20;32.53
17060;BME280;8646;49.716;9.266;2022-07-18T07:19:59;101003.06;;;25.24;32.48
17060;BME280;8646;49.716;9.266;2022-07-18T07:23:02;100978.88;;;25.35;31.75
17060;BME280;8646;49.716;9.266;2022-07-18T07:26:08;100994.25;;;25.68;31.55
17060;BME280;8646;49.716;9.266;2022-07-18T07:29:13;100989.69;;;25.87;30.97
17060;BME280;8646;49.716;9.266;2022-07-18T07:32:16;100979.31;;;25.98;30.98
17060;BME280;8646;49.716;9.266;2022-07-18T07:35:20;100975.94;;;26.04;30.81
17060;BME280;8646;49.716;9.266;2022-07-18T07:38:23;100971.72;;;26.10;30.88
17060;BME280;8646;49.716;9.266;2022-07-18T07:41:29;100980.47;;;26.05;30.96
17060;BME280;8646;49.716;9.266;2022-07-18T07:44:34;100974.50;;;26.00;30.47
17060;BME280;8646;49.716;9.266;2022-07-18T07:47:37;100982.34;;;26.05;30.17
17060;BME280;8646;49.716;9.266;2022-07-18T07:50:40;100964.84;;;26.04;29.73
17060;BME280;8646;49.716;9.266;2022-07-18T07:53:43;100974.19;;;26.03;29.69
17060;BME280;8646;49.716;9.266;2022-07-18T07:56:45;100968.63;;;26.03;29.17
17060;BME280;8646;49.716;9.266;2022-07-18T07:59:50;100955.09;;;26.00;29.18
17060;BME280;8646;49.716;9.266;2022-07-18T08:02:54;100961.38;;;26.02;29.10
17060;BME280;8646;49.716;9.266;2022-07-18T08:06:00;100954.94;;;26.02;29.06
17060;BME280;8646;49.716;9.266;2022-07-18T08:09:03;100956.25;;;26.07;29.10
17060;BME280;8646;49.716;9.266;2022-07-18T08:12:08;100944.09;;;26.18;28.84
17060;BME280;8646;49.716;9.266;2022-07-18T08:15:12;100952.88;;;26.04;29.18
17060;BME280;8646;49.716;9.266;2022-07-18T08:18:15;100951.19;;;25.74;30.20
17060;BME280;8646;49.716;9.266;2022-07-18T08:21:18;100953.81;;;25.27;30.74
17060;BME280;8646;49.716;9.266;2022-07-18T08:24:21;100955.06;;;24.94;31.01
17060;BME280;8646;49.716;9.266;2022-07-18T08:27:24;100948.16;;;24.79;31.63
17060;BME280;8646;49.716;9.266;2022-07-18T08:30:28;100955.72;;;24.77;31.82
17060;BME280;8646;49.716;9.266;2022-07-18T08:33:31;100949.75;;;24.82;32.21
17060;BME280;8646;49.716;9.266;2022-07-18T08:36:34;100943.50;;;24.89;32.24
17060;BME280;8646;49.716;9.266;2022-07-18T08:39:40;100945.00;;;24.93;31.48
17060;BME280;8646;49.716;9.266;2022-07-18T08:42:43;100934.22;;;25.00;31.71
17060;BME280;8646;49.716;9.266;2022-07-18T08:46:08;100934.25;;;25.09;31.34
17060;BME280;8646;49.716;9.266;2022-07-18T08:49:12;100924.34;;;25.17;31.45
17060;BME280;8646;49.716;9.266;2022-07-18T08:52:16;100921.44;;;25.28;31.64
17060;BME280;8646;49.716;9.266;2022-07-18T08:55:36;100935.59;;;25.44;31.20
17060;BME280;8646;49.716;9.266;2022-07-18T08:58:39;100916.00;;;25.55;30.35
17060;BME280;8646;49.716;9.266;2022-07-18T09:01:47;100913.13;;;25.66;29.86
17060;BME280;8646;49.716;9.266;2022-07-18T09:04:50;100908.88;;;25.72;29.91
17060;BME280;8646;49.716;9.266;2022-07-18T09:08:15;100902.44;;;25.81;29.89
17060;BME280;8646;49.716;9.266;2022-07-18T09:11:18;100894.84;;;25.93;29.47
17060;BME280;8646;49.716;9.266;2022-07-18T09:14:42;100903.53;;;26.07;29.35
17060;BME280;8646;49.716;9.266;2022-07-18T09:17:49;100881.75;;;26.12;29.40
17060;BME280;8646;49.716;9.266;2022-07-18T09:21:08;100901.53;;;26.37;29.31
17060;BME280;8646;49.716;9.266;2022-07-18T09:24:12;100896.94;;;26.55;28.36
17060;BME280;8646;49.716;9.266;2022-07-18T09:27:34;100888.56;;;26.65;27.78
17060;BME280;8646;49.716;9.266;2022-07-18T09:30:37;100879.69;;;26.79;26.93
17060;BME280;8646;49.716;9.266;2022-07-18T09:33:51;100870.72;;;26.85;25.06
17060;BME280;8646;49.716;9.266;2022-07-18T09:36:55;100865.72;;;26.98;25.06
17060;BME280;8646;49.716;9.266;2022-07-18T09:40:13;100873.47;;;27.12;25.30
17060;BME280;8646;49.716;9.266;2022-07-18T09:43:22;100857.91;;;27.19;24.99
17060;BME280;8646;49.716;9.266;2022-07-18T09:46:25;100851.25;;;27.30;24.77
17060;BME280;8646;49.716;9.266;2022-07-18T09:49:30;100844.53;;;27.41;24.60
17060;BME280;8646;49.716;9.266;2022-07-18T09:52:33;100854.69;;;27.50;24.08
17060;BME280;8646;49.716;9.266;2022-07-18T09:55:43;100847.91;;;27.62;24.30
17060;BME280;8646;49.716;9.266;2022-07-18T09:58:51;100857.00;;;27.72;24.37
17060;BME280;8646;49.716;9.266;2022-07-18T10:01:54;100852.03;;;27.84;24.21
17060;BME280;8646;49.716;9.266;2022-07-18T10:04:58;100844.81;;;27.99;23.15
17060;BME280;8646;49.716;9.266;2022-07-18T10:08:08;100844.28;;;28.21;22.97
17060;BME280;8646;49.716;9.266;2022-07-18T10:11:11;100841.19;;;28.32;23.06
17060;BME280;8646;49.716;9.266;2022-07-18T10:14:15;100837.72;;;28.38;22.42
17060;BME280;8646;49.716;9.266;2022-07-18T10:17:18;100838.47;;;28.48;22.84
17060;BME280;8646;49.716;9.266;2022-07-18T10:20:32;100839.72;;;28.62;22.41
17060;BME280;8646;49.716;9.266;2022-07-18T10:23:39;100839.25;;;28.75;22.63
17060;BME280;8646;49.716;9.266;2022-07-18T10:26:43;100831.13;;;28.81;22.44
17060;BME280;8646;49.716;9.266;2022-07-18T10:30:08;100826.44;;;28.98;22.28
17060;BME280;8646;49.716;9.266;2022-07-18T10:33:37;100811.47;;;29.07;21.48
17060;BME280;8646;49.716;9.266;2022-07-18T10:37:08;100821.06;;;29.29;21.50
17060;BME280;8646;49.716;9.266;2022-07-18T10:40:23;100818.09;;;29.31;21.94
17060;BME280;8646;49.716;9.266;2022-07-18T10:43:35;100812.00;;;29.43;22.00
17060;BME280;8646;49.716;9.266;2022-07-18T10:47:04;100809.41;;;29.58;21.33
17060;BME280;8646;49.716;9.266;2022-07-18T10:50:08;100807.97;;;29.70;21.28
17060;BME280;8646;49.716;9.266;2022-07-18T10:53:13;100809.69;;;29.79;21.16
17060;BME280;8646;49.716;9.266;2022-07-18T10:56:15;100802.00;;;29.89;21.51
17060;BME280;8646;49.716;9.266;2022-07-18T10:59:20;100811.44;;;29.96;21.21
17060;BME280;8646;49.716;9.266;2022-07-18T11:02:31;100803.41;;;29.93;21.10
17060;BME280;8646;49.716;9.266;2022-07-18T11:05:34;100799.94;;;30.00;21.37
17060;BME280;8646;49.716;9.266;2022-07-18T11:08:39;100798.81;;;30.09;21.39
17060;BME280;8646;49.716;9.266;2022-07-18T11:15:15;100792.19;;;30.10;20.70
17060;BME280;8646;49.716;9.266;2022-07-18T11:18:18;100796.69;;;30.19;20.58
17060;BME280;8646;49.716;9.266;2022-07-18T11:21:22;100791.47;;;30.24;20.68
17060;BME280;8646;49.716;9.266;2022-07-18T11:24:27;100791.59;;;30.30;20.62
17060;BME280;8646;49.716;9.266;2022-07-18T11:27:30;100780.91;;;30.34;20.60
17060;BME280;8646;49.716;9.266;2022-07-18T11:30:33;100774.81;;;30.39;20.27
17060;BME280;8646;49.716;9.266;2022-07-18T11:33:38;100772.16;;;30.45;19.86
17060;BME280;8646;49.716;9.266;2022-07-18T11:36:43;100779.28;;;30.56;20.03
17060;BME280;8646;49.716;9.266;2022-07-18T11:39:48;100769.78;;;30.65;20.00
17060;BME280;8646;49.716;9.266;2022-07-18T11:42:51;100769.19;;;30.78;19.49
17060;BME280;8646;49.716;9.266;2022-07-18T11:46:01;100764.28;;;30.80;19.68
17060;BME280;8646;49.716;9.266;2022-07-18T11:49:05;100752.34;;;30.86;19.61
17060;BME280;8646;49.716;9.266;2022-07-18T11:52:08;100751.16;;;31.03;19.44
17060;BME280;8646;49.716;9.266;2022-07-18T11:55:13;100745.06;;;30.99;19.48
17060;BME280;8646;49.716;9.266;2022-07-18T11:58:17;100752.22;;;31.02;19.29
17060;BME280;8646;49.716;9.266;2022-07-18T12:01:20;100742.06;;;31.09;19.36
17060;BME280;8646;49.716;9.266;2022-07-18T12:04:24;100738.69;;;31.14;19.52
17060;BME280;8646;49.716;9.266;2022-07-18T12:07:27;100739.88;;;31.19;19.44
17060;BME280;8646;49.716;9.266;2022-07-18T12:10:33;100733.69;;;31.24;19.45
17060;BME280;8646;49.716;9.266;2022-07-18T12:13:42;100727.75;;;31.27;19.16
17060;BME280;8646;49.716;9.266;2022-07-18T12:16:47;100738.75;;;31.28;19.20
17060;BME280;8646;49.716;9.266;2022-07-18T12:19:50;100724.88;;;31.35;18.74
17060;BME280;8646;49.716;9.266;2022-07-18T12:23:05;100727.84;;;31.33;19.12
17060;BME280;8646;49.716;9.266;2022-07-18T12:30:05;100726.63;;;31.51;18.45
17060;BME280;8646;49.716;9.266;2022-07-18T12:33:14;100712.63;;;31.51;18.92
17060;BME280;8646;49.716;9.266;2022-07-18T12:36:17;100714.13;;;31.61;18.89
17060;BME280;8646;49.716;9.266;2022-07-18T12:39:27;100719.22;;;31.72;18.44
17060;BME280;8646;49.716;9.266;2022-07-18T12:42:32;100716.81;;;31.84;18.35
17060;BME280;8646;49.716;9.266;2022-07-18T12:45:37;100717.50;;;31.86;18.66
17060;BME280;8646;49.716;9.266;2022-07-18T12:48:41;100697.41;;;31.97;18.06
17060;BME280;8646;49.716;9.266;2022-07-18T12:51:44;100705.13;;;31.95;18.14
17060;BME280;8646;49.716;9.266;2022-07-18T12:54:47;100695.28;;;31.99;18.19
17060;BME280;8646;49.716;9.266;2022-07-18T12:57:50;100698.75;;;32.01;18.36
17060;BME280;8646;49.716;9.266;2022-07-18T13:00:55;100683.72;;;32.02;18.17
17060;BME280;8646;49.716;9.266;2022-07-18T13:04:05;100679.44;;;32.06;18.37
17060;BME280;8646;49.716;9.266;2022-07-18T13:07:08;100686.97;;;32.20;18.57
17060;BME280;8646;49.716;9.266;2022-07-18T13:10:12;100680.38;;;32.28;18.08
17060;BME280;8646;49.716;9.266;2022-07-18T13:13:15;100683.66;;;32.32;18.18
17060;BME280;8646;49.716;9.266;2022-07-18T13:16:19;100671.19;;;32.34;18.23
17060;BME280;8646;49.716;9.266;2022-07-18T13:19:23;100671.28;;;32.41;17.95
17060;BME280;8646;49.716;9.266;2022-07-18T13:22:27;100666.13;;;32.44;17.98
17060;BME280;8646;49.716;9.266;2022-07-18T13:25:33;100672.59;;;32.45;17.70
17060;BME280;8646;49.716;9.266;2022-07-18T13:28:37;100662.75;;;32.49;17.52
17060;BME280;8646;49.716;9.266;2022-07-18T13:31:42;100658.44;;;32.53;17.80
17060;BME280;8646;49.716;9.266;2022-07-18T13:34:46;100648.84;;;32.62;18.17
17060;BME280;8646;49.716;9.266;2022-07-18T13:37:49;100658.31;;;32.61;17.93
17060;BME280;8646;49.716;9.266;2022-07-18T13:40:52;100653.19;;;32.65;17.61
17060;BME280;8646;49.716;9.266;2022-07-18T13:43:55;100648.75;;;32.70;17.95
17060;BME280;8646;49.716;9.266;2022-07-18T13:46:59;100645.81;;;32.78;17.78
17060;BME280;8646;49.716;9.266;2022-07-18T13:50:02;100641.13;;;32.85;17.51
17060;BME280;8646;49.716;9.266;2022-07-18T13:53:06;100641.59;;;32.89;17.55
17060;BME280;8646;49.716;9.266;2022-07-18T13:56:09;100643.34;;;32.90;17.64
17060;BME280;8646;49.716;9.266;2022-07-18T13:59:12;100624.97;;;32.87;17.69
17060;BME280;8646;49.716;9.266;2022-07-18T14:02:16;100638.84;;;32.95;17.99
17060;BME280;8646;49.716;9.266;2022-07-18T14:05:20;100640.78;;;32.95;17.75
17060;BME280;8646;49.716;9.266;2022-07-18T14:08:23;100637.56;;;32.98;17.72
17060;BME280;8646;49.716;9.266;2022-07-18T14:11:25;100631.34;;;33.03;17.95
17060;BME280;8646;49.716;9.266;2022-07-18T14:14:28;100629.66;;;33.08;17.88
17060;BME280;8646;49.716;9.266;2022-07-18T14:17:32;100632.94;;;33.12;17.52
17060;BME280;8646;49.716;9.266;2022-07-18T14:20:35;100624.53;;;33.12;17.64
17060;BME280;8646;49.716;9.266;2022-07-18T14:23:38;100626.47;;;33.11;17.86
17060;BME280;8646;49.716;9.266;2022-07-18T14:26:41;100633.41;;;33.15;17.08
17060;BME280;8646;49.716;9.266;2022-07-18T14:29:44;100623.66;;;33.11;17.47
17060;BME280;8646;49.716;9.266;2022-07-18T14:32:48;100624.91;;;33.09;17.66
17060;BME280;8646;49.716;9.266;2022-07-18T14:35:51;100621.03;;;33.10;17.53
17060;BME280;8646;49.716;9.266;2022-07-18T14:38:54;100621.09;;;33.16;17.29
17060;BME280;8646;49.716;9.266;2022-07-18T14:41:57;100621.38;;;33.21;17.54
17060;BME280;8646;49.716;9.266;2022-07-18T14:45:00;100622.50;;;33.27;17.57
17060;BME280;8646;49.716;9.266;2022-07-18T14:48:05;100613.00;;;33.28;17.28
17060;BME280;8646;49.716;9.266;2022-07-18T14:51:08;100612.16;;;33.27;17.40
17060;BME280;8646;49.716;9.266;2022-07-18T14:54:11;100606.56;;;33.34;17.21
17060;BME280;8646;49.716;9.266;2022-07-18T14:57:15;100602.31;;;33.38;17.63
17060;BME280;8646;49.716;9.266;2022-07-18T15:00:19;100598.84;;;33.43;17.66
17060;BME280;8646;49.716;9.266;2022-07-18T15:03:23;100597.13;;;33.42;17.17
17060;BME280;8646;49.716;9.266;2022-07-18T15:06:46;100595.16;;;33.36;17.04
17060;BME280;8646;49.716;9.266;2022-07-18T15:09:49;100592.81;;;33.39;17.17
17060;BME280;8646;49.716;9.266;2022-07-18T15:12:52;100593.25;;;33.43;17.38
17060;BME280;8646;49.716;9.266;2022-07-18T15:15:55;100592.38;;;33.42;17.13
17060;BME280;8646;49.716;9.266;2022-07-18T15:18:59;100598.16;;;33.34;17.17
17060;BME280;8646;49.716;9.266;2022-07-18T15:22:02;100597.06;;;33.28;17.29
17060;BME280;8646;49.716;9.266;2022-07-18T15:25:07;100592.31;;;33.29;17.23
17060;BME280;8646;49.716;9.266;2022-07-18T15:28:10;100586.06;;;33.33;17.21
17060;BME280;8646;49.716;9.266;2022-07-18T15:31:13;100581.59;;;33.39;17.28
17060;BME280;8646;49.716;9.266;2022-07-18T15:34:18;100584.63;;;33.44;17.52
17060;BME280;8646;49.716;9.266;2022-07-18T15:37:20;100577.94;;;33.45;17.23
17060;BME280;8646;49.716;9.266;2022-07-18T15:40:23;100571.28;;;33.46;17.08
17060;BME280;8646;49.716;9.266;2022-07-18T15:43:26;100566.53;;;33.47;17.30
17060;BME280;8646;49.716;9.266;2022-07-18T15:46:29;100571.94;;;33.48;17.26
17060;BME280;8646;49.716;9.266;2022-07-18T15:49:33;100568.88;;;33.43;17.23
17060;BME280;8646;49.716;9.266;2022-07-18T15:52:37;100561.31;;;33.37;17.66
17060;BME280;8646;49.716;9.266;2022-07-18T15:55:39;100552.22;;;33.35;17.78
17060;BME280;8646;49.716;9.266;2022-07-18T15:58:42;100556.75;;;33.36;17.71
17060;BME280;8646;49.716;9.266;2022-07-18T16:01:45;100545.53;;;33.36;17.62
17060;BME280;8646;49.716;9.266;2022-07-18T16:04:50;100547.47;;;33.36;17.54
17060;BME280;8646;49.716;9.266;2022-07-18T16:07:53;100534.09;;;33.31;17.67
17060;BME280;8646;49.716;9.266;2022-07-18T16:10:56;100540.97;;;33.28;18.32
17060;BME280;8646;49.716;9.266;2022-07-18T16:13:59;100546.13;;;33.25;18.06
17060;BME280;8646;49.716;9.266;2022-07-18T16:17:02;100539.22;;;33.21;17.86
17060;BME280;8646;49.716;9.266;2022-07-18T16:20:07;100531.59;;;33.15;18.66
17060;BME280;8646;49.716;9.266;2022-07-18T16:23:10;100540.00;;;33.15;19.16
17060;BME280;8646;49.716;9.266;2022-07-18T16:26:13;100535.47;;;33.14;18.26